In Rescue
 
Open Full Screen Window  High Contrast Mode
Wind Gusting 00 knots
08
October 25, 2021 2:13 PM CDT
Weather Information
Wind Direction
  100 °
Wind Speed
  08 kt (9 mph)
Wind Gust
  00 kt (0 mph)
Altimeter
30.10 in
Visibility
10 SM
Temperature
09° C
48° F
Dewpoint
01° C
34° F
Humidity
58%
1hr Rain Fall
00.00 in.
24hr Rain Fall
00.07 in.
Sky Condition
Clear
VFR

METAR KMJQ 251913Z AUTO 10008KT 10SM CLR 09/01 A3010 RMK AO2 PWINO

FAA Disclaimer: The data displayed is for advisory purposes only and is not to be used for flight planning or operations.